Provo, Kentucky
Current Conditions -  °F | °C
As of 8:53 PM on Wednesday 22 Oct 2014 (Local Time) from KBWG Reporting Station
Clear Clear  
Wind Chill: 45°   Ceiling: Unl
Heat Index: 49°   Visibility: 10mi
Dew Point: 41°   Wind: 9mph
Humidity: 74%   Direction: 70°ENE
Pressure: 30.24"   Gusts: NA
Location:  37.23°N, 86.83°W
Report Text: KBWG 230153Z AUTO 07008KT 10SM CLR 09/05 A3024 RMK AO2 SLP241 T00940050
Loading
Personal Weather Stations






























Interactive Weather Map
Tropical Storm Tracking
New forecast layout! Learn more

10-Day Weather Forecast

Advertisements
Track Severe Weather on mobile